Time;durP1;ratioP1;P1;durP2;ratioP2;P2;SDS_P1;SDS_P2;PMS_P1;PMS_P2;Temp;Humidity;BMP_temperature;BMP_pressure;BME280_temperature;BME280_humidity;BME280_pressure;Samples;Min_cycle;Max_cycle;Signal;HPM_P1;HPM_P2
2022/01/22 00:00:24;;;;;;;13.68;8.30;;;1.80;99.90;;;1.32;100.00;103527.34;4169147;28;20472;-71
2022/01/22 00:02:25;;;;;;;14.77;7.63;;;1.80;99.90;;;1.42;100.00;103534.97;4167995;28;20026;-71
2022/01/22 00:04:26;;;;;;;12.52;7.63;;;1.90;99.90;;;1.66;99.96;103534.50;4151852;28;20033;-71
2022/01/22 00:06:27;;;;;;;13.02;7.40;;;1.90;99.90;;;1.66;100.00;103531.91;4169022;28;20029;-71
2022/01/22 00:08:28;;;;;;;13.88;6.50;;;2.00;99.90;;;1.63;100.00;103523.28;4169150;28;20523;-71
2022/01/22 00:10:29;;;;;;;13.20;7.18;;;2.00;99.90;;;1.69;100.00;103523.16;4184530;28;20037;-71
2022/01/22 00:14:39;;;;;;;13.73;8.15;;;2.00;99.90;;;1.49;100.00;103514.91;4183810;28;20091;-71
2022/01/22 00:16:39;;;;;;;14.32;7.88;;;2.00;99.90;;;1.48;100.00;103519.25;4184022;28;20153;-71
2022/01/22 00:18:41;;;;;;;17.15;8.60;;;2.00;99.90;;;1.60;100.00;103525.94;4168999;28;20471;-71
2022/01/22 00:20:41;;;;;;;18.20;10.93;;;2.00;99.90;;;1.63;100.00;103512.88;4184274;28;20029;-71
2022/01/22 00:22:43;;;;;;;18.42;8.90;;;2.00;99.90;;;1.76;100.00;103513.50;4169047;28;20077;-71
2022/01/22 00:24:48;;;;;;;10.98;7.75;;;2.00;99.90;;;1.65;100.00;103506.75;4169120;28;20029;-71
2022/01/22 00:26:49;;;;;;;11.93;7.47;;;2.10;99.90;;;1.63;100.00;103523.28;4168550;28;20080;-71
2022/01/22 00:28:50;;;;;;;11.05;6.25;;;2.10;99.90;;;1.50;100.00;103514.00;4168989;28;20022;-71
2022/01/22 00:30:51;;;;;;;11.80;7.22;;;2.00;99.90;;;1.44;100.00;103506.31;4167298;28;20396;-71
2022/01/22 00:32:53;;;;;;;11.43;7.82;;;2.00;99.90;;;1.47;100.00;103517.53;4151231;28;20057;-71
2022/01/22 00:34:54;;;;;;;10.25;7.22;;;1.90;99.90;;;1.53;100.00;103509.59;4168943;28;20389;-70
2022/01/22 00:36:55;;;;;;;11.95;8.00;;;1.90;99.90;;;1.73;100.00;103517.03;4183765;28;20031;-71
2022/01/22 00:38:56;;;;;;;13.07;7.07;;;2.00;99.90;;;1.56;100.00;103506.06;4151214;28;20054;-71
2022/01/22 00:40:57;;;;;;;14.98;7.68;;;2.00;99.90;;;1.97;100.00;103511.25;4151022;28;20045;-71
2022/01/22 00:42:57;;;;;;;15.30;6.75;;;2.00;99.90;;;2.09;100.00;103500.59;4168154;28;20480;-71
2022/01/22 00:44:59;;;;;;;10.95;6.93;;;2.20;99.90;;;1.97;100.00;103508.66;4183672;28;20021;-71
2022/01/22 00:47:02;;;;;;;9.95;7.40;;;2.20;99.90;;;1.81;100.00;103501.22;4183657;28;20055;-71
2022/01/22 00:49:03;;;;;;;14.93;7.80;;;2.20;99.90;;;1.77;100.00;103510.84;4151226;28;20056;-71
2022/01/22 00:51:04;;;;;;;13.70;7.65;;;2.20;99.90;;;1.83;100.00;103509.84;4168490;28;20033;-71
2022/01/22 00:53:05;;;;;;;14.07;7.45;;;2.20;99.90;;;1.72;100.00;103502.28;4168592;28;20021;-71
2022/01/22 00:55:07;;;;;;;9.85;6.90;;;2.10;99.90;;;1.70;100.00;103506.69;4183818;28;20025;-71
2022/01/22 00:57:08;;;;;;;13.10;7.97;;;2.10;99.90;;;1.84;100.00;103495.97;4150634;28;20026;-71
2022/01/22 00:59:09;;;;;;;18.77;7.45;;;2.10;99.90;;;1.99;100.00;103498.22;4168509;28;20028;-71
2022/01/22 01:01:10;;;;;;;11.25;7.32;;;2.20;99.90;;;1.92;100.00;103496.63;4168100;28;20033;-71
2022/01/22 01:03:11;;;;;;;15.00;7.32;;;2.20;99.90;;;1.93;100.00;103499.22;4168437;28;20448;-71
2022/01/22 01:05:14;;;;;;;17.35;7.68;;;2.20;99.90;;;2.09;99.62;103497.97;4183527;28;20033;-71
2022/01/22 01:07:15;;;;;;;10.48;7.72;;;2.30;99.90;;;1.98;100.00;103483.50;4160801;28;20057;-71
2022/01/22 01:09:17;;;;;;;11.75;7.57;;;2.30;99.90;;;1.92;100.00;103487.09;4168403;28;20033;-71
2022/01/22 01:11:18;;;;;;;13.05;6.95;;;2.30;99.90;;;1.85;100.00;103492.47;4150732;28;20026;-71
2022/01/22 01:13:19;;;;;;;9.75;6.97;;;2.30;99.90;;;1.83;100.00;103487.28;4168301;28;20036;-71
2022/01/22 01:18:04;;;;;;;;;;;2.20;99.90;;;1.74;100.00;103471.88;4135152;28;20096;-71
2022/01/22 01:34:17;;;;;;;10.60;6.53;;;2.10;99.90;;;1.65;100.00;103464.25;4162339;28;20128;-71
2022/01/22 01:36:18;;;;;;;12.50;8.13;;;2.10;99.90;;;1.70;100.00;103469.38;4166670;28;20036;-71
2022/01/22 01:38:22;;;;;;;10.73;8.10;;;2.10;99.90;;;1.63;100.00;103463.44;4150435;28;20030;-71
2022/01/22 01:40:25;;;;;;;11.50;8.48;;;2.00;99.90;;;1.52;100.00;103475.84;4135504;28;20040;-71
2022/01/22 01:42:38;;;;;;;14.82;9.32;;;2.00;99.90;;;1.50;100.00;103470.66;4151446;28;20018;-71
2022/01/22 01:44:40;;;;;;;12.80;7.07;;;2.00;99.90;;;1.54;100.00;103474.03;4119135;28;20031;-71
2022/01/22 01:46:53;;;;;;;13.20;8.15;;;2.00;99.90;;;1.49;100.00;103462.88;4128859;28;20022;-71
2022/01/22 01:48:54;;;;;;;13.48;8.77;;;1.90;99.90;;;1.49;100.00;103466.31;4164017;28;20081;-71
2022/01/22 01:50:57;;;;;;;12.10;6.85;;;1.90;99.90;;;1.32;100.00;103450.22;4150325;28;20037;-71
2022/01/22 01:53:30;;;;;;;10.90;7.45;;;1.90;99.90;;;1.35;100.00;103451.88;4142034;28;20065;-71
2022/01/22 01:55:32;;;;;;;14.98;8.02;;;1.80;99.90;;;1.39;100.00;103457.00;4120115;28;20437;-71
2022/01/22 01:57:39;;;;;;;10.05;8.15;;;1.80;99.90;;;1.43;100.00;103457.81;4124888;28;20129;-71
2022/01/22 01:59:43;;;;;;;13.23;7.95;;;1.80;99.90;;;1.31;100.00;103453.72;4149096;28;20586;-71
2022/01/22 02:01:44;;;;;;;11.73;7.07;;;1.80;99.90;;;1.31;100.00;103451.13;4135048;28;20070;-71
2022/01/22 02:03:45;;;;;;;10.77;7.72;;;1.80;99.90;;;1.31;100.00;103458.06;4162245;28;20109;-71
2022/01/22 02:05:46;;;;;;;9.95;7.00;;;1.70;99.90;;;1.26;100.00;103452.94;4126065;28;20410;-71
2022/01/22 02:07:48;;;;;;;10.40;7.10;;;1.70;99.90;;;1.34;100.00;103458.00;4166077;28;20043;-71
2022/01/22 02:09:49;;;;;;;15.32;7.10;;;1.70;99.90;;;1.28;100.00;103466.78;4133551;28;20030;-71
2022/01/22 02:12:18;;;;;;;11.60;6.68;;;1.70;99.90;;;1.31;100.00;103452.84;4133561;28;20062;-71
2022/01/22 02:23:42;;;;;;;11.02;7.32;;;1.80;99.90;;;1.46;100.00;103439.53;4150950;28;20044;-71
2022/01/22 02:25:43;;;;;;;13.82;7.70;;;1.80;99.90;;;1.37;100.00;103447.53;4149479;28;20026;-71
2022/01/22 02:27:44;;;;;;;14.57;7.05;;;1.80;99.90;;;1.28;100.00;103447.72;4150909;28;20417;-71
2022/01/22 02:29:47;;;;;;;11.00;7.13;;;1.80;99.90;;;1.24;100.00;103438.25;4150781;28;20033;-71
2022/01/22 02:32:07;;;;;;;12.25;6.50;;;1.70;99.90;;;1.24;100.00;103435.66;4149770;28;20033;-71
2022/01/22 02:34:21;;;;;;;9.55;6.25;;;1.70;99.90;;;1.24;100.00;103440.84;4150943;28;20505;-71
2022/01/22 02:36:36;;;;;;;11.15;6.68;;;1.70;99.90;;;1.33;100.00;103440.66;4149765;28;20030;-71
2022/01/22 02:38:54;;;;;;;12.35;7.22;;;1.70;99.90;;;1.38;100.00;103447.50;4149751;28;20049;-71
2022/01/22 02:40:55;;;;;;;8.68;6.28;;;1.70;99.90;;;1.25;100.00;103437.38;4149847;28;20113;-71
2022/01/22 02:42:59;;;;;;;11.60;5.63;;;1.70;99.90;;;1.08;100.00;103443.75;4151102;28;20104;-71
2022/01/22 02:45:09;;;;;;;7.30;5.82;;;1.70;99.90;;;1.02;100.00;103454.25;4150746;28;20026;-71
2022/01/22 02:47:10;;;;;;;10.80;7.30;;;1.60;99.90;;;1.12;100.00;103447.16;4134327;28;20030;-71
2022/01/22 02:49:11;;;;;;;11.18;6.00;;;1.60;99.90;;;1.19;100.00;103437.50;4149685;28;20040;-71
2022/01/22 02:51:12;;;;;;;13.88;7.20;;;1.60;99.90;;;1.28;100.00;103442.50;4150946;28;20058;-71
2022/01/22 02:53:14;;;;;;;10.63;6.75;;;1.60;99.90;;;1.19;100.00;103440.97;4150800;28;20065;-71
2022/01/22 02:55:15;;;;;;;12.68;6.78;;;1.60;99.90;;;1.13;100.00;103433.28;4149581;28;20026;-71
2022/01/22 02:57:16;;;;;;;9.63;6.30;;;1.60;99.90;;;1.08;100.00;103435.94;4150817;28;20030;-71
2022/01/22 02:59:21;;;;;;;9.15;6.25;;;1.60;99.90;;;1.13;100.00;103437.63;4149235;28;20128;-71
2022/01/22 03:01:23;;;;;;;10.90;6.50;;;1.60;99.90;;;1.08;100.00;103441.16;4149760;28;20026;-71
2022/01/22 03:03:24;;;;;;;12.65;7.38;;;1.50;99.90;;;1.03;100.00;103448.19;4150862;28;20022;-71
2022/01/22 03:05:25;;;;;;;13.35;6.88;;;1.50;99.90;;;0.95;100.00;103434.50;4151385;28;20036;-71
2022/01/22 03:07:26;;;;;;;7.88;5.93;;;1.50;99.90;;;0.93;100.00;103443.16;4154031;28;20067;-71
2022/01/22 03:09:30;;;;;;;10.10;6.75;;;1.40;99.90;;;1.02;100.00;103440.41;4152741;28;20408;-71
2022/01/22 03:11:40;;;;;;;11.07;6.32;;;1.40;99.90;;;1.15;100.00;103431.50;4153783;28;20052;-71
2022/01/22 03:16:03;;;;;;;12.43;6.78;;;1.50;99.90;;;1.19;100.00;103433.16;4184517;28;20119;-71
2022/01/22 03:20:23;;;;;;;9.35;6.30;;;1.50;99.90;;;0.99;100.00;103433.53;4152916;28;20050;-71
2022/01/22 03:29:15;;;;;;;11.57;6.80;;;1.60;99.90;;;1.28;100.00;103430.38;4166407;28;20543;-71
2022/01/22 03:31:16;;;;;;;10.55;6.90;;;1.70;99.90;;;1.34;100.00;103424.19;4152259;28;20030;-71
2022/01/22 03:33:20;;;;;;;9.75;6.57;;;1.70;99.90;;;1.29;100.00;103423.41;4153641;28;20382;-71
2022/01/22 03:37:27;;;;;;;12.77;7.03;;;1.70;99.90;;;1.26;100.00;103423.47;4153771;28;19968;-71
2022/01/22 03:39:28;;;;;;;12.68;6.57;;;1.70;99.90;;;1.27;100.00;103414.78;4135940;28;20037;-71
2022/01/22 03:41:29;;;;;;;11.57;7.20;;;1.60;99.90;;;1.38;100.00;103421.47;4168719;28;20026;-71
2022/01/22 03:43:30;;;;;;;10.68;6.28;;;1.70;99.90;;;1.25;100.00;103416.56;4153459;28;20520;-71
2022/01/22 03:45:31;;;;;;;10.75;7.05;;;1.70;99.90;;;1.08;100.00;103425.56;4153075;28;20401;-71
2022/01/22 03:47:32;;;;;;;12.10;7.88;;;1.60;99.90;;;0.96;100.00;103418.00;4153361;28;20057;-71
2022/01/22 03:49:33;;;;;;;13.32;6.70;;;1.50;99.90;;;0.90;100.00;103417.25;4153353;28;20034;-71
2022/01/22 03:51:34;;;;;;;12.50;8.13;;;1.50;99.90;;;1.07;100.00;103417.81;4153621;28;20041;-71
2022/01/22 03:53:35;;;;;;;17.38;7.85;;;1.50;99.90;;;1.09;100.00;103409.09;4152050;28;20026;-71
2022/01/22 03:57:37;;;;;;;11.75;7.53;;;1.50;99.90;;;1.12;100.00;103410.75;4153454;28;20030;-71
2022/01/22 03:59:38;;;;;;;10.30;6.85;;;1.50;99.90;;;1.01;100.00;103395.38;4151655;28;20026;-71
2022/01/22 04:03:52;;;;;;;10.02;7.72;;;1.50;99.90;;;1.01;100.00;103402.31;4152005;28;20397;-71
2022/01/22 04:06:24;;;;;;;20.17;8.88;;;1.50;99.90;;;1.09;100.00;103411.69;4151925;28;20513;-71
2022/01/22 04:08:17;;;;;;;17.55;7.20;;;1.50;99.90;;;1.08;100.00;103409.09;4152773;28;20030;-71
2022/01/22 04:10:21;;;;;;;;;;;1.50;99.90;;;0.96;100.00;103415.38;4152315;28;20112;-71
2022/01/22 04:12:31;;;;;;;15.10;6.45;;;1.50;99.90;;;0.82;100.00;103408.75;4151968;28;20443;-70
2022/01/22 04:14:34;;;;;;;11.02;6.70;;;1.40;99.90;;;0.85;100.00;103419.94;4152699;28;20030;-71
2022/01/22 04:16:42;;;;;;;11.85;6.28;;;1.40;99.90;;;0.84;100.00;103419.97;4183442;28;20055;-71
2022/01/22 04:25:50;;;;;;;13.07;6.85;;;1.40;99.90;;;0.83;100.00;103416.53;4151723;28;20555;-71
2022/01/22 04:27:53;;;;;;;13.38;7.07;;;1.40;99.90;;;0.73;100.00;103417.56;4136106;28;20050;-71
2022/01/22 04:29:58;;;;;;;18.38;8.30;;;1.30;99.90;;;0.78;100.00;103428.72;4151322;28;20029;-71
2022/01/22 04:31:59;;;;;;;12.00;7.05;;;1.30;99.90;;;0.85;100.00;103422.53;4151566;28;20119;-71
2022/01/22 04:34:00;;;;;;;12.02;6.35;;;1.30;99.90;;;0.84;100.00;103415.63;4151507;28;20464;-71
2022/01/22 04:36:01;;;;;;;10.20;6.15;;;1.30;99.90;;;0.74;100.00;103415.84;4152516;28;20041;-71
2022/01/22 04:38:02;;;;;;;8.70;6.30;;;1.30;99.90;;;0.64;100.00;103424.66;4152606;28;20030;-71
2022/01/22 04:40:03;;;;;;;8.20;5.60;;;1.20;99.90;;;0.63;100.00;103415.19;4152582;28;20041;-71
2022/01/22 04:42:05;;;;;;;9.02;5.63;;;1.20;99.90;;;0.67;100.00;103407.28;4151325;28;20018;-71
2022/01/22 04:44:07;;;;;;;9.00;6.00;;;1.20;99.90;;;0.63;100.00;103418.59;4150848;28;20030;-71
2022/01/22 04:46:23;;;;;;;14.60;6.80;;;1.10;99.90;;;0.67;100.00;103420.28;4151231;28;20026;-71
2022/01/22 04:54:58;;;;;;;9.02;5.95;;;1.20;99.90;;;0.89;100.00;103421.63;4152528;28;20644;-71
2022/01/22 04:55:08;;;;;;;11.23;6.47;;;1.20;99.90;;;0.62;100.00;103410.84;4152382;28;20037;-71
2022/01/22 04:57:09;;;;;;;10.57;6.22;;;1.20;99.90;;;0.61;100.00;103414.31;4134813;28;20769;-71
2022/01/22 04:59:10;;;;;;;14.68;6.50;;;1.20;99.90;;;0.71;100.00;103427.13;4150904;28;20026;-70
2022/01/22 05:01:10;;;;;;;9.73;6.50;;;1.10;99.90;;;0.73;100.00;103422.75;4152265;28;20061;-71
2022/01/22 05:03:14;;;;;;;9.25;5.90;;;1.20;99.90;;;0.73;100.00;103427.97;4152355;28;20455;-71
2022/01/22 05:05:15;;;;;;;9.48;5.63;;;1.20;99.90;;;0.81;100.00;103431.28;4152262;28;20084;-71
2022/01/22 05:07:16;;;;;;;12.15;6.47;;;1.20;99.90;;;0.99;100.00;103432.66;4151047;28;20420;-71
2022/01/22 05:09:17;;;;;;;11.48;6.70;;;1.20;99.90;;;0.88;100.00;103417.28;4151051;28;20121;-71
2022/01/22 05:11:19;;;;;;;10.50;6.25;;;1.30;99.90;;;0.85;100.00;103432.94;4167283;28;20041;-71
2022/01/22 05:13:20;;;;;;;12.48;6.90;;;1.30;99.90;;;0.89;100.00;103433.75;4151122;28;20044;-71
2022/01/22 05:15:22;;;;;;;10.95;6.97;;;1.30;99.90;;;0.89;100.00;103433.75;4150548;28;20029;-71
2022/01/22 05:17:23;;;;;;;9.60;6.05;;;1.30;99.90;;;0.82;100.00;103435.59;4150654;28;20068;-71
2022/01/22 05:21:44;;;;;;;9.68;6.55;;;1.30;99.90;;;0.78;100.00;103427.88;4141848;28;20068;-71
2022/01/22 05:23:46;;;;;;;10.48;5.95;;;1.30;99.90;;;0.81;100.00;103428.66;4151978;28;20018;-71
2022/01/22 05:25:54;;;;;;;9.82;6.30;;;1.40;99.90;;;0.90;100.00;103423.31;4151659;28;20581;-71
2022/01/22 05:36:54;;;;;;;11.27;6.55;;;1.50;99.90;;;0.96;100.00;103430.97;4161304;28;20049;-71
2022/01/22 05:37:18;;;;;;;9.38;5.32;;;1.70;99.90;;;1.22;100.00;103424.44;4150681;28;20037;-71
2022/01/22 05:39:21;;;;;;;9.25;6.05;;;1.70;99.90;;;1.28;100.00;103413.91;4151617;28;20026;-71
2022/01/22 05:41:22;;;;;;;11.35;5.72;;;1.80;99.90;;;1.17;100.00;103424.50;4150502;28;20018;-71
2022/01/22 05:43:22;;;;;;;8.95;6.03;;;1.80;99.90;;;1.19;100.00;103411.50;4151764;28;20040;-71
2022/01/22 05:45:24;;;;;;;11.18;6.00;;;1.80;99.90;;;1.29;100.00;103424.28;4133759;28;20056;-71
2022/01/22 05:47:27;;;;;;;11.00;6.10;;;1.90;99.90;;;1.32;100.00;103418.16;4166743;28;20604;-71
2022/01/22 05:49:31;;;;;;;12.27;6.10;;;2.00;99.90;;;1.35;100.00;103418.09;4151625;28;20092;-71
2022/01/22 05:51:33;;;;;;;7.78;5.50;;;2.00;99.90;;;1.29;100.00;103410.41;4134471;28;20053;-71
2022/01/22 05:53:48;;;;;;;9.85;5.78;;;2.10;99.90;;;1.40;100.00;103418.88;4166623;28;20041;-71
2022/01/22 06:00:17;;;;;;;11.57;5.45;;;2.20;99.90;;;1.57;100.00;103425.41;4151170;28;20135;-71
2022/01/22 06:02:19;;;;;;;11.27;5.32;;;2.20;99.90;;;1.56;100.00;103421.09;4150290;28;20041;-71
2022/01/22 06:04:20;;;;;;;7.22;5.13;;;2.30;99.90;;;1.62;100.00;103435.72;4150327;28;20022;-71
2022/01/22 06:06:21;;;;;;;8.77;6.22;;;2.30;99.90;;;1.65;100.00;103438.25;4149979;28;20513;-71
2022/01/22 06:08:22;;;;;;;11.63;6.47;;;2.30;99.90;;;1.66;100.00;103427.81;4151333;28;20374;-71
2022/01/22 06:10:28;;;;;;;11.90;7.03;;;2.40;99.90;;;1.70;100.00;103439.03;4150077;28;20120;-71
2022/01/22 06:14:30;;;;;;;11.10;5.95;;;2.40;99.90;;;1.65;100.00;103426.09;4166341;28;20041;-71
2022/01/22 06:16:31;;;;;;;9.98;6.47;;;2.50;99.90;;;1.86;100.00;103436.91;4149647;28;20088;-71
2022/01/22 06:18:32;;;;;;;10.18;6.15;;;2.50;99.90;;;1.93;100.00;103430.69;4149843;28;20030;-71
2022/01/22 06:20:33;;;;;;;13.60;8.90;;;2.50;99.90;;;1.97;100.00;103440.16;4151060;28;20052;-71
2022/01/22 06:22:34;;;;;;;9.80;6.80;;;2.60;99.90;;;2.09;100.00;103432.06;4151058;28;20028;-71
2022/01/22 06:24:35;;;;;;;12.00;7.25;;;2.60;99.90;;;2.00;100.00;103424.47;4150848;28;20026;-71
2022/01/22 06:26:36;;;;;;;9.48;6.82;;;2.70;99.90;;;2.01;100.00;103424.41;4150732;28;20050;-71
2022/01/22 06:28:37;;;;;;;13.68;7.18;;;2.70;99.90;;;2.14;100.00;103433.66;4151157;28;20034;-71
2022/01/22 06:30:38;;;;;;;8.55;6.57;;;2.80;99.90;;;2.19;100.00;103433.53;4182065;28;20082;-71
2022/01/22 06:32:39;;;;;;;13.35;6.57;;;2.80;99.90;;;2.11;100.00;103438.94;4150984;28;20512;-71
2022/01/22 06:34:40;;;;;;;6.68;5.32;;;2.80;99.90;;;1.98;100.00;103429.69;4151059;28;20459;-71
2022/01/22 06:36:41;;;;;;;10.43;6.78;;;2.80;99.90;;;2.09;100.00;103429.47;4149650;28;20026;-71
2022/01/22 06:38:42;;;;;;;9.13;5.50;;;2.80;99.90;;;2.11;100.00;103438.94;4150964;28;20113;-71
2022/01/22 06:43:05;;;;;;;12.20;7.55;;;2.80;99.90;;;2.24;100.00;103442.94;4149992;28;20100;-71
2022/01/22 06:45:08;;;;;;;9.98;6.35;;;2.90;99.90;;;2.47;100.00;103441.53;4149400;28;20081;-71
2022/01/22 06:47:09;;;;;;;11.90;7.25;;;2.90;99.90;;;2.44;100.00;103439.88;4149472;28;20029;-71
2022/01/22 06:49:10;;;;;;;10.48;6.63;;;3.00;99.90;;;2.31;100.00;103441.06;4150931;28;20101;-70
2022/01/22 06:51:11;;;;;;;10.57;6.40;;;3.00;99.90;;;2.23;100.00;103441.25;4149600;28;20129;-70
2022/01/22 06:53:12;;;;;;;9.82;6.45;;;3.00;99.90;;;2.29;100.00;103440.25;4150807;28;20022;-70
2022/01/22 06:55:16;;;;;;;11.90;7.57;;;3.00;99.90;;;2.43;100.00;103443.38;4150691;28;20109;-71
2022/01/22 06:57:18;;;;;;;11.52;6.95;;;3.10;99.90;;;2.33;100.00;103439.25;4181635;28;20382;-71
2022/01/22 06:59:18;;;;;;;18.80;6.28;;;3.00;99.90;;;2.50;100.00;103434.50;4182244;28;20102;-71
2022/01/22 07:01:19;;;;;;;11.80;6.03;;;3.10;99.90;;;2.54;100.00;103437.91;4182430;28;20025;-71
2022/01/22 07:03:21;;;;;;;11.23;6.90;;;3.10;99.90;;;2.54;100.00;103445.72;4149522;28;20084;-71
2022/01/22 07:05:21;;;;;;;9.05;6.20;;;3.10;99.90;;;2.45;100.00;103441.56;4150665;28;20392;-71
2022/01/22 07:07:22;;;;;;;11.60;6.60;;;3.10;99.90;;;2.38;100.00;103436.56;4150812;28;20034;-71
2022/01/22 07:09:23;;;;;;;9.38;6.32;;;3.20;99.90;;;2.49;100.00;103439.75;4149668;28;20030;-71
2022/01/22 07:11:25;;;;;;;9.68;5.78;;;3.20;99.90;;;2.55;100.00;103447.41;4149254;28;20087;-71
2022/01/22 07:13:26;;;;;;;12.32;6.15;;;3.20;99.90;;;2.48;100.00;103438.06;4149565;28;20467;-71
2022/01/22 07:15:28;;;;;;;11.23;6.90;;;3.20;99.90;;;2.46;100.00;103435.47;4148936;28;20034;-71
2022/01/22 07:17:34;;;;;;;13.10;7.35;;;3.20;99.90;;;2.56;99.67;103436.09;4164969;28;20128;-71
2022/01/22 07:19:40;;;;;;;13.13;7.20;;;3.20;99.90;;;2.53;100.00;103436.19;4164916;28;20030;-72
2022/01/22 07:21:42;;;;;;;9.52;5.93;;;3.20;99.90;;;2.50;100.00;103441.47;4133099;28;20019;-71
2022/01/22 07:24:22;;;;;;;11.52;5.97;;;3.20;99.90;;;2.43;100.00;103439.91;4166256;28;20026;-71
2022/01/22 07:26:06;;;;;;;9.00;5.88;;;3.20;99.90;;;2.42;100.00;103440.81;4148950;28;20026;-71
2022/01/22 07:28:07;;;;;;;10.18;5.80;;;3.20;99.90;;;2.43;100.00;103445.09;4168861;28;20151;-71
2022/01/22 07:30:09;;;;;;;13.45;6.47;;;3.20;99.90;;;2.50;100.00;103449.28;4181947;28;20102;-71
2022/01/22 07:32:14;;;;;;;11.95;6.68;;;3.20;99.90;;;2.51;100.00;103457.03;4182164;28;20029;-71
2022/01/22 07:34:15;;;;;;;12.63;6.35;;;3.20;99.90;;;2.58;100.00;103444.72;4149867;28;20109;-71
2022/01/22 07:36:16;;;;;;;9.35;5.80;;;3.20;99.90;;;2.63;100.00;103438.50;4149076;28;20026;-71
2022/01/22 07:38:17;;;;;;;8.57;5.88;;;3.30;99.90;;;2.62;100.00;103441.16;4182071;28;20856;-71
2022/01/22 07:40:18;;;;;;;9.82;6.38;;;3.30;99.90;;;2.56;100.00;103433.50;4149306;28;20040;-71
2022/01/22 07:42:19;;;;;;;9.93;6.05;;;3.30;99.90;;;2.55;100.00;103435.25;4166647;28;20030;-71
2022/01/22 07:44:20;;;;;;;10.15;6.22;;;3.30;99.90;;;2.63;100.00;103428.06;4181907;28;20028;-71
2022/01/22 07:46:21;;;;;;;9.27;5.72;;;3.30;99.90;;;2.72;100.00;103422.63;4166550;28;20026;-71
2022/01/22 07:48:22;;;;;;;11.52;6.35;;;3.30;99.90;;;2.71;100.00;103430.50;4182100;28;20059;-71
2022/01/22 07:50:23;;;;;;;11.30;5.90;;;3.40;99.90;;;2.73;100.00;103439.13;4166749;28;20029;-71
2022/01/22 07:52:24;;;;;;;9.02;6.97;;;3.40;99.90;;;2.79;100.00;103425.94;4182273;28;20114;-71
2022/01/22 07:54:25;;;;;;;12.25;7.40;;;3.40;99.90;;;2.72;100.00;103426.97;4169456;28;20022;-71
2022/01/22 07:56:26;;;;;;;9.38;6.72;;;3.40;99.90;;;2.84;100.00;103437.09;4169302;28;20075;-70
2022/01/22 07:58:27;;;;;;;12.35;6.25;;;3.50;99.90;;;2.92;100.00;103436.91;4184689;28;20029;-71
2022/01/22 08:00:28;;;;;;;12.98;6.95;;;3.50;99.90;;;2.87;100.00;103437.00;4155187;28;20112;-70
2022/01/22 08:02:29;;;;;;;12.20;6.32;;;3.50;99.90;;;2.97;100.00;103445.44;4161266;28;20037;-71
2022/01/22 08:04:30;;;;;;;7.38;5.78;;;3.60;99.90;;;2.94;100.00;103438.56;4184616;28;20059;-70
2022/01/22 08:06:31;;;;;;;9.02;6.10;;;3.70;99.90;;;3.11;100.00;103441.56;4151397;28;20770;-70
2022/01/22 08:08:34;;;;;;;11.32;5.65;;;3.70;99.90;;;3.03;100.00;103447.88;4169364;28;20033;-70
2022/01/22 08:10:35;;;;;;;9.73;6.72;;;3.70;99.90;;;3.05;100.00;103440.88;4184428;28;20044;-70
2022/01/22 08:12:37;;;;;;;7.32;5.65;;;3.70;99.90;;;2.98;100.00;103445.41;4169233;28;20490;-70
2022/01/22 08:14:38;;;;;;;12.45;5.80;;;3.70;99.90;;;3.04;100.00;103440.03;4184025;28;20037;-70
2022/01/22 08:16:39;;;;;;;7.70;6.38;;;3.80;99.90;;;3.03;100.00;103448.75;4163730;28;20054;-70
2022/01/22 08:18:40;;;;;;;8.98;5.68;;;3.80;99.90;;;3.04;100.00;103447.84;4168769;28;20077;-70
2022/01/22 08:20:41;;;;;;;10.02;6.03;;;3.80;99.90;;;3.18;100.00;103445.72;4168878;28;20109;-71
2022/01/22 08:22:43;;;;;;;10.57;6.32;;;3.80;99.90;;;3.19;100.00;103439.63;4168730;28;20029;-71
2022/01/22 08:24:44;;;;;;;14.35;9.35;;;3.80;99.90;;;3.29;100.00;103446.25;4183884;28;20083;-72
2022/01/22 08:26:50;;;;;;;13.98;8.23;;;3.80;99.90;;;3.22;100.00;103444.75;4183744;28;20039;-70
2022/01/22 08:28:54;;;;;;;10.75;6.78;;;3.90;99.90;;;3.13;100.00;103451.97;4169024;28;20037;-71
2022/01/22 08:30:56;;;;;;;10.23;6.72;;;3.80;99.90;;;3.11;100.00;103457.19;4184241;28;20067;-71
2022/01/22 08:37:37;;;;;;;12.35;7.22;;;3.90;99.90;;;3.20;98.83;103463.91;4168876;28;20067;-71
2022/01/22 08:39:38;;;;;;;16.08;8.30;;;3.90;99.90;;;3.19;100.00;103464.84;4172771;28;20032;-72
2022/01/22 08:41:39;;;;;;;14.48;8.23;;;3.90;99.90;;;3.15;100.00;103460.59;4168971;28;20028;-71
2022/01/22 08:43:40;;;;;;;17.35;8.48;;;3.90;99.90;;;3.20;99.45;103467.38;4168958;28;20025;-71
2022/01/22 08:45:41;;;;;;;14.18;7.43;;;4.00;99.90;;;3.30;99.87;103458.41;4183735;28;20503;-71
2022/01/22 08:47:42;;;;;;;15.05;6.78;;;4.00;99.90;;;3.27;98.54;103452.44;4151243;28;20041;-71
2022/01/22 08:49:43;;;;;;;14.43;8.32;;;4.10;99.90;;;3.28;99.33;103459.38;4167581;28;20038;-71
2022/01/22 08:51:44;;;;;;;12.27;7.57;;;4.10;99.90;;;3.21;99.54;103468.25;4151168;28;20128;-71
2022/01/22 08:53:45;;;;;;;15.52;7.47;;;4.10;99.90;;;3.41;100.00;103465.06;4168699;28;20076;-71
2022/01/22 08:55:46;;;;;;;9.88;7.47;;;4.20;99.90;;;3.58;97.13;103463.72;4183554;28;20036;-71
2022/01/22 08:57:49;;;;;;;18.45;7.78;;;4.30;99.90;;;3.71;96.18;103467.66;4183732;28;20029;-72
2022/01/22 08:59:50;;;;;;;13.75;7.13;;;4.30;99.90;;;3.68;97.83;103467.75;4183389;28;20021;-72
2022/01/22 09:01:51;;;;;;;11.07;6.95;;;4.40;99.90;;;3.89;95.79;103458.41;4168439;28;20068;-72
2022/01/22 09:03:52;;;;;;;15.57;7.63;;;4.50;99.90;;;3.72;96.17;103458.06;4150369;28;20093;-72
2022/01/22 09:05:55;;;;;;;13.05;8.07;;;4.50;99.90;;;3.73;99.01;103460.63;4168150;28;20108;-72
2022/01/22 09:07:56;;;;;;;11.98;8.43;;;4.50;99.90;;;3.79;99.56;103462.22;4183222;28;20041;-72
2022/01/22 09:09:57;;;;;;;11.10;8.27;;;4.60;99.90;;;3.82;99.79;103464.75;4134463;28;20113;-72
2022/01/22 09:11:57;;;;;;;14.60;8.80;;;4.60;99.90;;;3.89;98.64;103469.72;4166951;28;20036;-72
2022/01/22 09:13:59;;;;;;;13.07;7.90;;;4.60;99.90;;;3.89;99.45;103469.72;4168058;28;20029;-72
2022/01/22 09:16:00;;;;;;;14.25;8.57;;;4.70;99.90;;;3.93;99.89;103467.88;4166612;28;20029;-72
2022/01/22 09:18:01;;;;;;;12.13;7.70;;;4.70;99.90;;;4.00;99.90;103461.56;4183243;28;20041;-72
2022/01/22 09:20:09;;;;;;;16.55;8.73;;;4.80;99.90;;;4.01;99.38;103468.47;4183530;28;20044;-72
2022/01/22 09:22:09;;;;;;;11.48;8.43;;;4.80;99.90;;;4.23;98.42;103479.97;4182580;28;20032;-72
2022/01/22 09:24:13;;;;;;;12.82;7.65;;;4.90;99.90;;;4.51;98.25;103477.31;4183483;28;20029;-73
2022/01/22 09:26:14;;;;;;;15.07;8.25;;;5.00;99.90;;;4.40;98.65;103477.69;4157229;28;20026;-72
2022/01/22 09:28:15;;;;;;;12.85;7.20;;;5.00;99.90;;;4.33;100.00;103473.53;4167569;28;20029;-73
2022/01/22 09:30:16;;;;;;;15.40;8.93;;;5.10;99.90;;;4.38;99.39;103471.66;4150064;28;20518;-72
2022/01/22 09:32:17;;;;;;;15.68;7.95;;;5.10;99.90;;;4.35;98.54;103473.50;4183378;28;20439;-72
2022/01/22 09:34:18;;;;;;;12.35;7.82;;;5.10;99.90;;;4.31;98.64;103477.97;4151194;28;20104;-72
2022/01/22 09:36:19;;;;;;;12.43;8.60;;;5.20;99.90;;;4.04;98.67;103473.59;4178673;28;20040;-72
2022/01/22 09:38:22;;;;;;;14.70;8.00;;;5.10;99.90;;;4.39;97.84;103481.19;4154403;28;20504;-72
2022/01/22 09:40:28;;;;;;;11.00;7.88;;;5.20;99.90;;;4.21;97.58;103473.94;4188060;28;20025;-72
2022/01/22 09:42:29;;;;;;;12.13;8.70;;;5.20;99.90;;;4.48;97.05;103486.13;4182354;28;20219;-71
2022/01/22 09:44:30;;;;;;;12.65;8.02;;;5.20;99.90;;;4.58;97.47;103480.59;4182370;28;20040;-71
2022/01/22 09:46:31;;;;;;;12.07;7.57;;;5.30;99.90;;;4.62;97.50;103479.59;4133568;28;20081;-72
2022/01/22 09:48:32;;;;;;;23.60;8.00;;;5.40;99.90;;;4.49;97.85;103486.97;4149386;28;20045;-71
2022/01/22 09:50:35;;;;;;;13.50;8.27;;;5.40;99.90;;;4.59;98.63;103485.78;4167473;28;20041;-72
2022/01/22 09:52:37;;;;;;;16.25;8.80;;;5.40;99.90;;;4.84;97.69;103485.78;4182041;28;20037;-72